Time;durP1;ratioP1;P1;durP2;ratioP2;P2;SDS_P1;SDS_P2;PMS_P1;PMS_P2;Temp;Humidity;BMP_temperature;BMP_pressure;BME280_temperature;BME280_humidity;BME280_pressure;Samples;Min_cycle;Max_cycle;Signal;HPM_P1;HPM_P2
2024/01/16 07:01:26;;;;;;;0.20;0.20;;;0.60;99.90;3.00;100685.00;;;;6251883;22;1449532;-72
2024/01/16 07:03:54;;;;;;;1.17;1.07;;;0.80;99.90;2.10;100594.00;;;;6226045;22;20160;-72
2024/01/16 07:06:26;;;;;;;2.57;1.97;;;0.80;99.90;1.70;100686.00;;;;6251246;22;20141;-72
2024/01/16 07:08:57;;;;;;;1.03;1.03;;;0.60;99.90;2.70;100686.00;;;;6251593;22;20567;-72
2024/01/16 07:11:26;;;;;;;1.63;1.23;;;0.80;99.90;1.80;100680.00;;;;6226113;22;20566;-72
2024/01/16 07:13:52;;;;;;;1.23;0.93;;;0.70;99.90;1.70;100670.00;;;;6278358;22;20145;-72
2024/01/16 07:16:18;;;;;;;7.43;1.80;;;0.60;99.90;1.70;100689.00;;;;6251426;22;20519;-72
2024/01/16 07:18:50;;;;;;;1.57;1.07;;;0.60;99.90;1.90;100674.00;;;;6250731;22;20145;-72
2024/01/16 07:21:20;;;;;;;1.33;0.70;;;0.70;99.90;1.80;100603.00;;;;6251050;22;20191;-74
2024/01/16 07:23:50;;;;;;;1.17;0.40;;;0.60;99.90;2.10;100687.00;;;;6225495;22;20505;-75
2024/01/16 07:26:16;;;;;;;0.40;0.40;;;0.70;99.90;1.80;100679.00;;;;6225644;22;20156;-74
2024/01/16 07:28:47;;;;;;;0.73;0.67;;;0.60;99.90;2.00;100668.00;;;;6225981;22;20152;-74
2024/01/16 07:31:14;;;;;;;1.50;1.13;;;0.70;99.90;2.60;100688.00;;;;6250070;22;20165;-73
2024/01/16 07:33:40;;;;;;;1.47;1.37;;;0.90;99.90;3.00;100696.00;;;;6225886;22;20291;-72
2024/01/16 07:36:08;;;;;;;0.30;0.30;;;1.10;99.90;2.20;100691.00;;;;6250989;22;20183;-73
2024/01/16 07:38:35;;;;;;;1.00;0.60;;;0.80;99.90;2.50;100648.00;;;;6250316;22;20208;-72
2024/01/16 07:41:08;;;;;;;0.83;0.70;;;0.80;99.90;2.90;100711.00;;;;6250820;22;20133;-71
2024/01/16 07:43:36;;;;;;;0.20;0.20;;;1.10;99.90;2.90;100693.00;;;;6249867;22;20176;-73
2024/01/16 07:46:03;;;;;;;0.97;0.77;;;1.00;99.90;3.10;100707.00;;;;6276605;22;20149;-73
2024/01/16 07:48:31;;;;;;;0.20;0.20;;;1.10;99.90;2.80;100684.00;;;;6277287;22;20172;-73
2024/01/16 07:50:58;;;;;;;0.20;0.20;;;0.90;99.90;2.90;100677.00;;;;6225926;22;20573;-73
2024/01/16 07:53:27;;;;;;;2.20;1.40;;;1.00;99.90;2.80;100638.00;;;;6278222;22;20152;-73
2024/01/16 07:55:54;;;;;;;0.20;0.20;;;1.00;99.90;4.00;100719.00;;;;6277996;22;20137;-73
2024/01/16 07:58:21;;;;;;;0.73;0.53;;;1.30;99.90;2.70;100727.00;;;;6251273;22;20145;-73
2024/01/16 08:00:47;;;;;;;1.00;0.87;;;1.20;99.90;3.10;100710.00;;;;6230715;23;20172;-73
2024/01/16 08:03:14;;;;;;;1.90;1.80;;;1.10;99.90;2.90;100719.00;;;;6220351;23;20169;-74
2024/01/16 08:05:40;;;;;;;0.20;0.20;;;1.20;99.90;2.70;100686.00;;;;6195542;23;20207;-74
2024/01/16 08:08:09;;;;;;;1.20;1.07;;;1.00;99.90;2.20;100703.00;;;;6220648;23;20153;-74
2024/01/16 08:10:44;;;;;;;5.47;1.13;;;0.90;99.90;3.10;100724.00;;;;6195599;23;20157;-72
2024/01/16 08:13:13;;;;;;;0.87;0.87;;;1.00;99.90;2.10;100733.00;;;;6247235;23;20152;-73
2024/01/16 08:15:39;;;;;;;1.13;1.03;;;0.80;99.90;2.00;100736.00;;;;6195849;23;20231;-72
2024/01/16 08:18:17;;;;;;;0.30;0.30;;;0.80;99.90;2.20;100730.00;;;;6219981;23;20138;-75
2024/01/16 08:20:43;;;;;;;1.47;1.37;;;0.70;99.90;2.30;100728.00;;;;6247237;23;20148;-74
2024/01/16 08:23:12;;;;;;;2.50;1.23;;;0.90;99.90;3.30;100744.00;;;;6246873;23;20228;-74
2024/01/16 08:25:38;;;;;;;1.27;1.13;;;1.00;99.90;2.80;100750.00;;;;6220273;23;20148;-74
2024/01/16 08:28:04;;;;;;;0.30;0.30;;;1.20;99.90;2.40;100733.00;;;;6246343;23;20574;-74
2024/01/16 08:30:40;;;;;;;5.27;1.57;;;1.10;99.90;2.60;100741.00;;;;6245595;23;20200;-73
2024/01/16 08:33:31;;;;;;;0.20;0.20;;;1.00;99.90;2.30;100741.00;;;;6194673;23;20589;-74
2024/01/16 08:36:07;;;;;;;1.50;1.40;;;1.00;99.90;2.00;100725.00;;;;6220114;23;20236;-74
2024/01/16 08:39:10;;;;;;;0.20;0.20;;;0.90;99.90;2.70;100654.00;;;;6219765;23;20441;-74
2024/01/16 08:42:14;;;;;;;0.30;0.30;;;0.90;99.90;2.30;100726.00;;;;6219961;23;20153;-74
2024/01/16 08:44:51;;;;;;;1.07;1.03;;;1.00;99.90;2.70;100694.00;;;;6195012;23;20243;-74
2024/01/16 08:47:39;;;;;;;1.60;1.00;;;1.00;99.90;2.40;100657.00;;;;6246558;23;20195;-74
2024/01/16 08:50:09;;;;;;;0.50;0.50;;;0.90;99.90;2.10;100725.00;;;;6185089;23;20192;-74
2024/01/16 08:52:44;;;;;;;2.57;0.83;;;0.80;99.90;2.30;100718.00;;;;6219973;23;20217;-74
2024/01/16 08:55:21;;;;;;;0.40;0.40;;;0.90;99.90;4.00;100718.00;;;;6220200;23;20171;-74
2024/01/16 08:57:47;;;;;;;0.40;0.40;;;1.40;99.90;3.60;100738.00;;;;6194936;23;20150;-74
2024/01/16 09:01:10;;;;;;;0.20;0.20;;;1.60;99.90;3.20;100696.00;;;;6232155;22;20222;-74
2024/01/16 09:03:39;;;;;;;0.30;0.30;;;1.50;99.90;2.90;100673.00;;;;6227879;22;20181;-74
2024/01/16 09:06:21;;;;;;;0.30;0.30;;;1.40;99.90;3.30;100726.00;;;;6250660;22;20514;-74
2024/01/16 09:08:50;;;;;;;0.40;0.40;;;1.50;99.90;3.60;100720.00;;;;6224933;22;20153;-75
2024/01/16 09:11:38;;;;;;;0.80;0.80;;;1.60;99.90;4.20;100723.00;;;;6250140;22;20160;-75
2024/01/16 09:14:46;;;;;;;0.73;0.73;;;1.80;99.90;4.10;100743.00;;;;6250280;22;20157;-75
2024/01/16 09:17:15;;;;;;;1.50;1.40;;;2.00;99.90;4.30;100734.00;;;;6251173;22;20153;-75
2024/01/16 09:20:09;;;;;;;0.27;0.27;;;2.20;99.90;3.80;100701.00;;;;6224774;22;20231;-75
2024/01/16 09:22:55;;;;;;;1.10;1.00;;;2.20;99.90;4.50;100683.00;;;;6250127;22;20670;-75
2024/01/16 09:25:29;;;;;;;0.47;0.47;;;2.10;99.90;4.20;100676.00;;;;6224670;22;20160;-75
2024/01/16 09:28:01;;;;;;;1.03;1.03;;;2.00;99.90;5.00;100732.00;;;;6249705;22;20184;-76
2024/01/16 09:30:35;;;;;;;2.90;2.53;;;2.20;99.90;3.40;100762.00;;;;6249723;22;20609;-78
2024/01/16 09:33:18;;;;;;;1.00;0.97;;;1.80;99.90;3.10;100723.00;;;;6250505;22;20168;-76
2024/01/16 09:36:02;;;;;;;0.40;0.40;;;1.60;99.90;3.10;100732.00;;;;6249963;22;20184;-76
2024/01/16 09:38:28;;;;;;;0.70;0.70;;;1.60;99.90;3.10;100731.00;;;;6224759;22;20180;-75
2024/01/16 09:40:58;;;;;;;0.60;0.60;;;1.50;99.90;3.40;100731.00;;;;6276905;22;20164;-74
2024/01/16 09:43:27;;;;;;;0.20;0.20;;;1.60;99.90;4.00;100708.00;;;;6276922;22;20539;-73
2024/01/16 09:46:22;;;;;;;1.83;1.73;;;1.80;99.90;3.90;100751.00;;;;6219918;22;20550;-75
2024/01/16 09:48:53;;;;;;;0.20;0.20;;;2.10;99.90;3.80;100742.00;;;;6275307;22;20137;-75
2024/01/16 09:52:02;;;;;;;0.23;0.23;;;2.00;99.90;4.00;100659.00;;;;6249748;22;20133;-77
2024/01/16 09:54:36;;;;;;;6.37;1.97;;;2.20;99.90;3.90;100757.00;;;;6249053;22;20207;-75
2024/01/16 09:57:06;;;;;;;0.40;0.27;;;2.40;99.90;4.30;100772.00;;;;6224565;22;20157;-75
2024/01/16 09:59:54;;;;;;;0.33;0.30;;;2.30;99.90;3.90;100766.00;;;;6248978;22;20169;-75
2024/01/16 10:02:31;;;;;;;0.20;0.20;;;2.10;99.90;3.50;100737.00;;;;6224182;22;20184;-75
2024/01/16 10:05:17;;;;;;;1.13;0.90;;;2.10;99.90;3.80;100749.00;;;;6249187;22;20137;-75
2024/01/16 10:07:51;;;;;;;0.77;0.77;;;2.30;99.90;4.30;100740.00;;;;6223273;22;20153;-75
2024/01/16 10:10:35;;;;;;;0.97;0.97;;;2.30;99.90;5.30;100758.00;;;;6223379;22;20153;-75
2024/01/16 10:13:41;;;;;;;2.33;0.77;;;2.80;99.90;3.70;100763.00;;;;6223230;22;20157;-75
2024/01/16 10:16:59;;;;;;;3.77;1.90;;;2.30;99.90;4.10;100772.00;;;;6273145;22;20161;-76
2024/01/16 10:19:56;;;;;;;1.50;0.83;;;2.70;99.90;3.70;100772.00;;;;6237013;22;20156;-75
2024/01/16 10:33:30;;;;;;;3.37;1.43;;;2.10;99.90;3.60;100678.00;;;;5070368;27;20548;-75
2024/01/16 10:36:16;;;;;;;0.67;0.67;;;2.20;99.90;5.30;100704.00;;;;5065862;28;20178;-75
2024/01/16 10:38:47;;;;;;;1.03;1.03;;;2.70;99.90;4.30;100702.00;;;;5049185;28;20182;-75
2024/01/16 10:41:17;;;;;;;1.07;1.00;;;2.70;99.90;4.00;100665.00;;;;5048915;28;20182;-75
2024/01/16 10:43:49;;;;;;;1.40;1.30;;;2.70;99.90;4.40;100715.00;;;;5065297;28;20269;-75
2024/01/16 10:46:18;;;;;;;0.33;0.33;;;2.80;99.90;4.80;100715.00;;;;5048657;28;20187;-75
2024/01/16 10:49:09;;;;;;;3.27;0.50;;;3.00;99.90;5.20;100724.00;;;;5049071;28;20265;-75
2024/01/16 10:51:50;;;;;;;2.10;1.90;;;3.20;99.90;5.10;100722.00;;;;5047780;28;20194;-75
2024/01/16 10:54:16;;;;;;;4.00;1.30;;;3.20;99.90;4.40;100743.00;;;;5025824;28;20249;-74
2024/01/16 10:57:06;;;;;;;1.53;0.97;;;3.00;99.90;4.80;100760.00;;;;5060212;28;20230;-74
2024/01/16 10:59:48;;;;;;;0.30;0.30;;;3.20;99.90;5.70;100704.00;;;;5064852;28;20203;-77
2024/01/16 11:02:18;;;;;;;0.80;0.80;;;3.40;99.90;5.00;100755.00;;;;5064358;28;20633;-71
2024/01/16 11:05:14;;;;;;;3.13;1.20;;;3.50;99.90;4.20;100750.00;;;;5048849;28;20554;-71
2024/01/16 11:07:42;;;;;;;0.87;0.60;;;2.90;99.90;5.10;100603.00;;;;5046942;28;20554;-72
2024/01/16 11:10:12;;;;;;;0.83;0.83;;;3.00;99.90;5.60;100730.00;;;;5048383;28;20243;-73
2024/01/16 11:12:40;;;;;;;1.17;1.17;;;3.40;99.90;5.30;100749.00;;;;5048617;28;20213;-72
2024/01/16 11:15:12;;;;;;;1.60;0.83;;;3.40;99.90;5.40;100731.00;;;;5040749;28;20641;-74
2024/01/16 11:17:41;;;;;;;0.90;0.77;;;3.30;99.90;5.00;100748.00;;;;5048974;28;20265;-71
2024/01/16 11:20:13;;;;;;;1.57;1.47;;;3.40;99.90;4.70;100762.00;;;;5063157;28;20183;-71
2024/01/16 11:22:44;;;;;;;0.87;0.87;;;3.20;99.90;4.60;100687.00;;;;5046599;28;20281;-71
2024/01/16 11:25:37;;;;;;;1.40;1.10;;;3.10;99.90;4.80;100709.00;;;;5064521;28;20213;-72
2024/01/16 11:28:38;;;;;;;0.20;0.20;;;3.10;99.90;4.80;100729.00;;;;5046198;28;20188;-72
2024/01/16 11:31:33;;;;;;;0.20;0.20;;;3.20;99.90;7.60;100723.00;;;;5037641;28;20177;-76
2024/01/16 11:34:57;;;;;;;0.40;0.40;;;4.20;99.90;5.90;100737.00;;;;5048044;28;20222;-77
2024/01/16 11:37:49;;;;;;;3.17;1.23;;;3.90;99.90;5.80;100693.00;;;;5034306;28;20225;-77
2024/01/16 11:40:21;;;;;;;0.10;0.10;;;3.70;99.90;6.20;100687.00;;;;5023612;28;20192;-76
2024/01/16 11:42:49;;;;;;;3.03;1.00;;;3.70;99.90;5.20;100750.00;;;;5044605;28;20207;-77
2024/01/16 11:45:30;;;;;;;1.00;0.90;;;3.70;99.90;4.90;100766.00;;;;5017468;28;20196;-77
2024/01/16 11:48:15;;;;;;;1.17;0.70;;;3.40;99.90;5.70;100754.00;;;;5033441;28;20222;-75
2024/01/16 11:51:50;;;;;;;1.30;1.17;;;3.60;99.90;5.40;100749.00;;;;5017093;28;20187;-76
2024/01/16 11:54:26;;;;;;;1.20;1.00;;;3.70;99.90;4.80;100751.00;;;;5006259;28;20693;-75
2024/01/16 11:57:32;;;;;;;2.40;1.60;;;3.30;99.90;6.10;100738.00;;;;5016731;28;20200;-75
2024/01/16 12:00:15;;;;;;;0.17;0.17;;;3.70;99.90;6.00;100715.00;;;;5008075;28;20199;-75
2024/01/16 12:03:23;;;;;;;0.93;0.80;;;3.80;99.90;7.30;100718.00;;;;5040789;28;20585;-75
2024/01/16 12:06:45;;;;;;;0.33;0.33;;;4.40;99.90;6.90;100709.00;;;;5022985;28;20294;-75
2024/01/16 12:09:39;;;;;;;0.33;0.33;;;4.40;99.90;5.80;100727.00;;;;5012509;28;20207;-75
2024/01/16 12:12:35;;;;;;;2.20;1.20;;;4.00;99.90;5.20;100707.00;;;;5034028;28;20278;-76
2024/01/16 12:15:38;;;;;;;0.10;0.10;;;3.70;99.90;7.60;100704.00;;;;5015809;28;20284;-76
2024/01/16 12:18:20;;;;;;;0.20;0.20;;;4.10;99.90;6.00;100742.00;;;;5017289;28;20186;-78
2024/01/16 12:21:12;;;;;;;2.93;1.43;;;4.40;99.90;6.10;100674.00;;;;5027382;28;20349;-78
2024/01/16 12:24:04;;;;;;;0.30;0.30;;;4.30;99.90;7.50;100700.00;;;;5019755;28;20265;-78
2024/01/16 12:26:48;;;;;;;1.00;0.80;;;4.60;99.90;6.40;100728.00;;;;5049035;28;20222;-77
2024/01/16 12:29:39;;;;;;;0.50;0.50;;;4.30;99.90;6.70;100729.00;;;;5021377;28;20590;-76
2024/01/16 12:32:46;;;;;;;0.30;0.30;;;4.20;99.90;6.10;100741.00;;;;5033474;28;20279;-78
2024/01/16 12:36:07;;;;;;;0.10;0.10;;;3.90;99.90;6.20;100729.00;;;;5029161;28;20197;-76
2024/01/16 12:39:19;;;;;;;0.20;0.20;;;4.10;99.90;5.50;100540.00;;;;5033416;28;20195;-75
2024/01/16 12:42:20;;;;;;;0.10;0.10;;;3.90;99.90;7.00;100704.00;;;;5017416;28;20710;-76
2024/01/16 12:45:12;;;;;;;0.40;0.40;;;4.30;99.90;6.90;100719.00;;;;5019079;28;20188;-75
2024/01/16 12:48:22;;;;;;;0.30;0.30;;;4.40;99.90;7.50;100710.00;;;;5032527;28;20198;-75
2024/01/16 12:51:34;;;;;;;1.63;1.33;;;4.80;99.90;5.90;100701.00;;;;5017019;28;20542;-75
2024/01/16 12:55:04;;;;;;;2.00;0.83;;;4.40;99.90;6.20;100716.00;;;;5033586;28;20196;-73
2024/01/16 12:58:20;;;;;;;0.10;0.10;;;4.40;99.90;7.60;100683.00;;;;4997113;28;20209;-75
2024/01/16 13:01:26;;;;;;;0.10;0.10;;;4.50;99.90;8.70;100654.00;;;;5032997;28;20637;-74
2024/01/16 13:03:55;;;;;;;6.03;1.50;;;5.20;99.90;7.50;100680.00;;;;5032912;28;20201;-75
2024/01/16 13:07:05;;;;;;;3.80;1.80;;;4.90;99.90;6.30;100709.00;;;;5049851;28;20196;-75
2024/01/16 13:09:31;;;;;;;3.50;1.17;;;4.50;99.90;5.50;100713.00;;;;5026804;28;20207;-75
2024/01/16 13:12:01;;;;;;;0.10;0.10;;;4.00;99.90;6.50;100698.00;;;;5034157;28;20217;-75
2024/01/16 13:14:46;;;;;;;1.03;0.87;;;4.10;99.90;6.70;100683.00;;;;5048269;28;20189;-75
2024/01/16 13:17:14;;;;;;;1.27;1.10;;;4.20;99.90;5.30;100740.00;;;;5019908;28;20208;-75
2024/01/16 13:19:43;;;;;;;1.87;1.77;;;3.90;99.90;7.20;100670.00;;;;5049659;28;20193;-75
2024/01/16 13:22:09;;;;;;;1.83;1.73;;;4.20;99.90;6.90;100669.00;;;;5047275;28;20223;-75
2024/01/16 13:24:35;;;;;;;0.10;0.10;;;4.30;99.90;7.50;100655.00;;;;5033971;28;20188;-75
2024/01/16 13:27:06;;;;;;;2.30;1.00;;;4.60;99.90;6.60;100671.00;;;;5049725;28;20212;-75
2024/01/16 13:29:35;;;;;;;0.40;0.40;;;4.40;99.90;6.80;100667.00;;;;5032587;28;20710;-76
2024/01/16 13:32:09;;;;;;;0.10;0.10;;;4.20;99.90;8.10;100635.00;;;;5047937;28;20217;-76
2024/01/16 13:34:49;;;;;;;0.10;0.10;;;4.70;99.90;7.20;100643.00;;;;5033759;28;20197;-76
2024/01/16 13:37:23;;;;;;;1.47;1.43;;;4.80;99.90;5.90;100684.00;;;;5042422;28;20180;-75
2024/01/16 13:39:58;;;;;;;0.13;0.13;;;4.40;99.90;7.30;100655.00;;;;5044695;28;20180;-75
2024/01/16 13:42:24;;;;;;;0.10;0.10;;;4.40;99.90;7.40;100637.00;;;;5032323;28;20218;-75
2024/01/16 13:45:24;;;;;;;2.43;0.47;;;4.50;99.90;6.00;100668.00;;;;5032838;28;20642;-75
2024/01/16 13:48:31;;;;;;;0.10;0.10;;;4.40;99.90;7.80;100646.00;;;;5035924;28;20273;-75
2024/01/16 13:51:23;;;;;;;0.90;0.90;;;4.50;99.90;7.90;100618.00;;;;5017670;28;20215;-75
2024/01/16 13:54:18;;;;;;;0.30;0.30;;;4.90;99.90;8.60;100610.00;;;;4990159;28;20225;-74
2024/01/16 13:57:16;;;;;;;0.10;0.10;;;5.10;99.90;8.50;100609.00;;;;4951524;28;20202;-74
2024/01/16 14:00:13;;;;;;;0.10;0.10;;;5.50;99.90;8.80;100588.00;;;;5017471;28;20197;-69
2024/01/16 14:03:06;;;;;;;0.10;0.10;;;5.50;99.90;7.80;100559.00;;;;5023807;28;20286;-72
2024/01/16 14:06:00;;;;;;;0.10;0.10;;;5.10;99.90;7.20;100614.00;;;;5004702;28;20214;-72
2024/01/16 14:08:45;;;;;;;0.20;0.20;;;4.70;99.90;8.20;100617.00;;;;4988622;28;20202;-73
2024/01/16 14:11:25;;;;;;;2.07;1.17;;;4.90;99.90;9.00;100576.00;;;;5011246;28;20194;-72
2024/01/16 14:14:17;;;;;;;1.70;1.60;;;5.30;99.90;7.40;100609.00;;;;5013282;28;20237;-73
2024/01/16 14:17:26;;;;;;;0.40;0.40;;;5.00;99.90;5.90;100638.00;;;;5031347;28;20184;-72
2024/01/16 14:20:22;;;;;;;0.20;0.20;;;4.10;99.90;6.60;100623.00;;;;5028344;28;20233;-77
2024/01/16 14:23:00;;;;;;;0.50;0.50;;;3.90;99.90;5.90;100652.00;;;;5013396;28;20234;-75
2024/01/16 14:25:41;;;;;;;0.37;0.37;;;3.90;99.90;7.10;100560.00;;;;5045141;28;20660;-75
2024/01/16 14:28:27;;;;;;;0.10;0.10;;;4.10;99.90;7.40;100623.00;;;;5030861;28;20572;-75
2024/01/16 14:31:36;;;;;;;15.73;2.97;;;4.10;99.90;7.40;100544.00;;;;5023482;28;20176;-75
2024/01/16 14:34:24;;;;;;;0.40;0.40;;;4.20;99.90;6.00;100635.00;;;;5037646;28;20254;-75
2024/01/16 14:37:13;;;;;;;0.27;0.27;;;3.90;99.90;6.20;100617.00;;;;5050766;28;20195;-75
2024/01/16 14:39:55;;;;;;;1.87;0.97;;;3.70;99.90;7.20;100616.00;;;;5051661;28;20186;-75
2024/01/16 14:42:35;;;;;;;0.20;0.20;;;4.10;99.90;7.50;100601.00;;;;5063969;28;20192;-75
2024/01/16 14:45:33;;;;;;;0.10;0.10;;;4.10;99.90;7.80;100592.00;;;;5051843;28;20201;-75
2024/01/16 14:48:22;;;;;;;0.10;0.10;;;4.40;99.90;8.00;100583.00;;;;5044607;28;20200;-75
2024/01/16 14:51:25;;;;;;;0.10;0.10;;;4.50;99.90;7.70;100572.00;;;;5035626;28;20183;-76
2024/01/16 14:54:20;;;;;;;0.10;0.10;;;4.60;99.90;7.50;100604.00;;;;5046267;28;20213;-75
2024/01/16 14:57:07;;;;;;;0.30;0.30;;;4.30;99.90;7.10;100598.00;;;;5039947;28;20221;-75
2024/01/16 14:59:50;;;;;;;0.20;0.20;;;4.30;99.90;6.80;100598.00;;;;5035105;28;20178;-75
2024/01/16 15:02:39;;;;;;;0.20;0.20;;;4.10;99.90;6.50;100613.00;;;;5035894;28;20194;-75
2024/01/16 15:05:31;;;;;;;0.10;0.10;;;3.80;99.90;6.60;100609.00;;;;4977694;28;20205;-75
2024/01/16 15:08:16;;;;;;;0.10;0.10;;;3.90;99.90;6.70;100553.00;;;;5039429;28;20218;-75
2024/01/16 15:11:05;;;;;;;0.30;0.30;;;3.70;99.90;5.80;100555.00;;;;5037653;28;20273;-75
2024/01/16 15:13:51;;;;;;;0.30;0.30;;;3.70;99.90;6.70;100596.00;;;;4997915;28;20284;-75
2024/01/16 15:16:43;;;;;;;0.50;0.50;;;3.80;99.90;6.40;100607.00;;;;5051508;28;20654;-75
2024/01/16 15:19:18;;;;;;;0.20;0.20;;;3.80;99.90;6.70;100545.00;;;;5046225;28;20244;-75
2024/01/16 15:21:44;;;;;;;0.20;0.20;;;3.80;99.90;6.90;100594.00;;;;5054784;28;20191;-75
2024/01/16 15:24:19;;;;;;;0.53;0.53;;;3.80;99.90;7.60;100577.00;;;;5054300;28;20190;-75
2024/01/16 15:26:48;;;;;;;0.10;0.10;;;4.10;99.90;6.90;100592.00;;;;5054943;28;20592;-75
2024/01/16 15:29:26;;;;;;;0.30;0.30;;;4.10;99.90;6.80;100605.00;;;;5054405;28;20596;-79
2024/01/16 15:31:59;;;;;;;0.20;0.20;;;3.90;99.90;7.30;100590.00;;;;5045713;28;20221;-78
2024/01/16 15:34:47;;;;;;;1.53;1.00;;;3.90;99.90;6.40;100548.00;;;;5044452;28;20754;-78
2024/01/16 15:37:23;;;;;;;1.57;1.57;;;3.90;99.90;6.00;100618.00;;;;5049779;28;20657;-77
2024/01/16 15:39:49;;;;;;;0.20;0.20;;;3.70;99.90;6.10;100625.00;;;;5026242;28;20186;-79
2024/01/16 15:42:20;;;;;;;0.10;0.10;;;3.40;99.90;6.30;100626.00;;;;5034982;28;20217;-77
2024/01/16 15:45:27;;;;;;;1.67;1.57;;;3.40;99.90;6.10;100624.00;;;;5052822;28;20182;-79
2024/01/16 15:48:10;;;;;;;0.50;0.50;;;3.40;99.90;5.90;100623.00;;;;5038175;28;20179;-80
2024/01/16 15:51:34;;;;;;;0.40;0.40;;;3.30;99.90;6.10;100625.00;;;;5054536;28;20189;-79
2024/01/16 15:54:56;;;;;;;0.20;0.20;;;3.40;99.90;6.20;100638.00;;;;5049639;28;20553;-79
2024/01/16 15:57:38;;;;;;;0.53;0.53;;;3.40;99.90;5.60;100617.00;;;;5039407;28;20199;-79
2024/01/16 16:00:33;;;;;;;2.13;2.03;;;3.20;99.90;5.90;100631.00;;;;5036566;28;20185;-79
2024/01/16 16:03:39;;;;;;;0.20;0.20;;;3.10;99.90;6.10;100631.00;;;;5052432;28;20187;-79
2024/01/16 16:06:33;;;;;;;0.90;0.90;;;3.20;99.90;6.00;100613.00;;;;5050701;28;20272;-79
2024/01/16 16:09:16;;;;;;;0.60;0.60;;;3.30;99.90;5.30;100620.00;;;;5013052;28;20217;-78
2024/01/16 16:12:28;;;;;;;1.43;1.00;;;3.10;99.90;5.70;100613.00;;;;5052697;28;20289;-78
2024/01/16 16:15:23;;;;;;;0.33;0.33;;;2.90;99.90;5.70;100599.00;;;;5051257;28;20547;-78
2024/01/16 16:18:14;;;;;;;0.30;0.30;;;2.90;99.90;5.70;100598.00;;;;5048826;28;20198;-78
2024/01/16 16:21:15;;;;;;;0.10;0.10;;;3.00;99.90;5.60;100601.00;;;;5048368;28;20198;-77
2024/01/16 16:24:18;;;;;;;0.40;0.40;;;2.90;99.90;5.40;100583.00;;;;5052561;28;20189;-77
2024/01/16 16:27:25;;;;;;;0.60;0.60;;;2.80;99.90;5.00;100580.00;;;;5045259;28;20216;-75
2024/01/16 16:30:29;;;;;;;0.47;0.47;;;2.70;99.90;5.60;100561.00;;;;5031459;28;20189;-74
2024/01/16 16:33:32;;;;;;;0.20;0.20;;;2.70;99.90;5.60;100564.00;;;;5042279;28;20205;-73
2024/01/16 16:36:38;;;;;;;0.83;0.57;;;2.70;99.90;5.40;100543.00;;;;5053904;28;20186;-74
2024/01/16 16:39:49;;;;;;;0.20;0.20;;;2.80;99.90;5.40;100552.00;;;;5050475;28;20288;-73
2024/01/16 16:42:27;;;;;;;2.57;0.87;;;2.70;99.90;5.40;100488.00;;;;5045278;28;20653;-73
2024/01/16 16:45:43;;;;;;;0.20;0.20;;;2.70;99.90;5.10;100555.00;;;;5053499;28;20182;-73
2024/01/16 16:48:20;;;;;;;0.37;0.37;;;2.60;99.90;5.40;100539.00;;;;5046236;28;20194;-74
2024/01/16 16:50:50;;;;;;;1.07;0.50;;;2.70;99.90;5.30;100544.00;;;;5037207;28;20247;-74
2024/01/16 16:53:30;;;;;;;0.33;0.33;;;2.70;99.90;5.30;100541.00;;;;5053170;28;20216;-75
2024/01/16 16:56:24;;;;;;;0.20;0.20;;;2.60;99.90;5.80;100522.00;;;;5051862;28;20244;-74
2024/01/16 16:59:10;;;;;;;0.30;0.30;;;2.60;99.90;5.40;100547.00;;;;5043976;28;20539;-75
2024/01/16 17:02:32;;;;;;;0.20;0.20;;;2.70;99.90;5.50;100543.00;;;;5068763;28;20285;-74
2024/01/16 17:05:09;;;;;;;0.47;0.47;;;2.70;99.90;4.80;100537.00;;;;5051068;28;20655;-76
2024/01/16 17:07:35;;;;;;;0.20;0.20;;;2.50;99.90;5.10;100537.00;;;;5052198;28;20186;-83
2024/01/16 17:10:01;;;;;;;0.87;0.87;;;2.40;99.90;5.00;100465.00;;;;5053086;28;20186;-77
2024/01/16 17:13:08;;;;;;;0.20;0.20;;;2.40;99.90;5.10;100528.00;;;;5052800;28;20720;-78
2024/01/16 17:15:43;;;;;;;6.43;1.70;;;2.30;99.90;4.80;100538.00;;;;5038119;28;20280;-77
2024/01/16 17:18:10;;;;;;;0.20;0.20;;;2.20;99.90;5.10;100533.00;;;;5045270;28;20598;-78
2024/01/16 17:20:45;;;;;;;0.30;0.30;;;2.30;99.90;4.80;100523.00;;;;5038383;28;20213;-77
2024/01/16 17:23:32;;;;;;;0.57;0.57;;;2.20;99.90;4.60;100492.00;;;;5047157;28;20182;-77
2024/01/16 17:25:59;;;;;;;0.70;0.70;;;2.10;99.90;4.50;100491.00;;;;5052662;28;20186;-76
2024/01/16 17:28:43;;;;;;;1.00;0.97;;;2.10;99.90;4.30;100487.00;;;;5051403;28;20182;-77
2024/01/16 17:31:14;;;;;;;0.33;0.33;;;2.00;99.90;4.70;100493.00;;;;5036633;28;20185;-77
2024/01/16 17:33:48;;;;;;;0.20;0.20;;;2.00;99.90;4.60;100483.00;;;;5035495;28;20224;-78
2024/01/16 17:36:15;;;;;;;0.20;0.20;;;2.00;99.90;4.50;100481.00;;;;5052596;28;20187;-74
2024/01/16 17:39:08;;;;;;;0.50;0.50;;;2.00;99.90;4.40;100471.00;;;;5036444;28;20637;-76
2024/01/16 17:42:14;;;;;;;0.77;0.77;;;2.00;99.90;4.00;100472.00;;;;5023886;28;20214;-76
2024/01/16 17:45:53;;;;;;;0.30;0.30;;;1.90;99.90;4.00;100464.00;;;;5030534;28;20205;-74
2024/01/16 17:49:20;;;;;;;0.30;0.30;;;1.90;99.90;4.10;100447.00;;;;5031506;28;20195;-73
2024/01/16 17:52:10;;;;;;;0.30;0.30;;;1.90;99.90;4.20;100426.00;;;;5049668;28;20641;-74
2024/01/16 17:55:02;;;;;;;0.83;0.83;;;1.80;99.90;3.80;100415.00;;;;5049449;28;20288;-76
2024/01/16 17:57:54;;;;;;;0.97;0.97;;;1.70;99.90;4.10;100334.00;;;;5031817;28;20194;-75
2024/01/16 18:00:31;;;;;;;0.50;0.50;;;1.80;99.90;3.60;100404.00;;;;5010650;28;20590;-75
2024/01/16 18:03:26;;;;;;;0.83;0.83;;;1.70;99.90;4.10;100380.00;;;;5032337;28;20198;-75
2024/01/16 18:06:26;;;;;;;0.63;0.63;;;1.70;99.90;4.20;100388.00;;;;5031511;28;20562;-75
2024/01/16 18:09:15;;;;;;;0.50;0.50;;;1.80;99.90;4.40;100369.00;;;;5045372;28;20189;-75
2024/01/16 18:12:10;;;;;;;1.73;1.63;;;1.90;99.90;4.30;100383.00;;;;5049136;28;20205;-75
2024/01/16 18:15:27;;;;;;;0.40;0.40;;;1.90;99.90;4.50;100367.00;;;;5058194;28;20206;-75
2024/01/16 18:18:40;;;;;;;0.20;0.20;;;1.80;99.90;4.60;100383.00;;;;5048218;28;20182;-75
2024/01/16 18:21:50;;;;;;;0.40;0.40;;;1.90;99.90;4.00;100379.00;;;;5050394;28;20231;-75
2024/01/16 18:24:55;;;;;;;0.20;0.20;;;1.80;99.90;4.40;100381.00;;;;5048468;28;20192;-75
2024/01/16 18:28:07;;;;;;;0.30;0.30;;;1.90;99.90;3.90;100378.00;;;;5031510;28;20607;-75
2024/01/16 18:31:02;;;;;;;0.40;0.40;;;1.70;99.90;4.00;100358.00;;;;5050698;28;20618;-75
2024/01/16 18:33:51;;;;;;;0.20;0.20;;;1.60;99.90;4.00;100364.00;;;;5051899;28;20214;-75
2024/01/16 18:37:10;;;;;;;0.60;0.60;;;1.60;99.90;4.10;100378.00;;;;5041683;28;20198;-75
2024/01/16 18:40:23;;;;;;;0.30;0.30;;;1.60;99.90;3.90;100370.00;;;;5045268;28;20182;-75
2024/01/16 18:42:59;;;;;;;2.63;2.43;;;1.70;99.90;3.40;100336.00;;;;5050413;28;20256;-75
2024/01/16 18:45:45;;;;;;;1.67;1.27;;;1.50;99.90;3.70;100376.00;;;;5051243;28;20722;-74
2024/01/16 18:48:25;;;;;;;0.50;0.50;;;1.50;99.90;4.10;100353.00;;;;5033871;28;20189;-75
2024/01/16 18:51:17;;;;;;;0.20;0.20;;;1.60;99.90;4.20;100360.00;;;;5051334;28;20193;-75
2024/01/16 18:54:12;;;;;;;0.77;0.77;;;1.70;99.90;3.90;100345.00;;;;5051589;28;20198;-75
2024/01/16 18:56:54;;;;;;;0.73;0.73;;;1.60;99.90;3.90;100340.00;;;;5035438;28;20652;-76
2024/01/16 19:00:12;;;;;;;0.77;0.47;;;1.60;99.90;4.10;100294.00;;;;5046919;28;20666;-76
2024/01/16 19:03:27;;;;;;;0.77;0.77;;;1.60;99.90;4.10;100355.00;;;;5056297;28;20221;-75
2024/01/16 19:06:34;;;;;;;0.60;0.60;;;1.70;99.90;3.70;100331.00;;;;5056147;28;20186;-74
2024/01/16 19:09:23;;;;;;;1.13;1.13;;;1.60;99.90;3.80;100308.00;;;;5043543;28;20288;-75
2024/01/16 19:12:27;;;;;;;1.07;1.07;;;1.40;99.90;3.50;100299.00;;;;5039905;28;20214;-73
2024/01/16 19:15:25;;;;;;;0.50;0.50;;;1.40;99.90;3.30;100294.00;;;;5051599;28;20607;-73
2024/01/16 19:18:21;;;;;;;0.63;0.63;;;1.30;99.90;3.20;100290.00;;;;5047466;28;20208;-73
2024/01/16 19:21:31;;;;;;;0.63;0.63;;;1.20;99.90;3.50;100282.00;;;;5052392;28;20205;-73
2024/01/16 19:24:21;;;;;;;1.90;1.80;;;1.20;99.90;3.30;100272.00;;;;5053049;28;20201;-73
2024/01/16 19:27:10;;;;;;;1.10;1.00;;;1.30;99.90;3.10;100272.00;;;;5044992;28;20187;-72
2024/01/16 19:30:04;;;;;;;2.73;2.30;;;1.20;99.90;3.30;100268.00;;;;5054481;28;20198;-73
2024/01/16 19:32:34;;;;;;;0.93;0.93;;;1.20;99.90;3.40;100265.00;;;;5030808;28;20216;-73
2024/01/16 19:35:43;;;;;;;4.27;1.40;;;1.30;99.90;3.70;100282.00;;;;5041031;28;20204;-73
2024/01/16 19:38:46;;;;;;;0.60;0.60;;;1.30;99.90;3.60;100273.00;;;;5052365;28;20221;-71